createdAt,value
2019-01-22T00:04:50.565Z,-8.30
2019-01-22T00:09:54.701Z,-8.30
2019-01-22T00:14:59.356Z,-8.30
2019-01-22T00:20:20.370Z,-8.40
2019-01-22T00:25:25.057Z,-8.40
2019-01-22T00:30:30.809Z,-8.40
2019-01-22T00:35:33.884Z,-8.40
2019-01-22T00:40:38.477Z,-8.40
2019-01-22T00:45:43.141Z,-8.40
2019-01-22T00:50:51.320Z,-8.40
2019-01-22T00:55:54.707Z,-8.40
2019-01-22T01:00:57.587Z,-8.50
2019-01-22T01:06:04.405Z,-8.50
2019-01-22T01:11:08.604Z,-8.60
2019-01-22T01:16:16.123Z,-8.60
2019-01-22T01:21:23.276Z,-8.60
2019-01-22T01:26:27.972Z,-8.60
2019-01-22T01:31:32.460Z,-8.70
2019-01-22T01:36:53.407Z,-8.70
2019-01-22T01:42:14.792Z,-8.80
2019-01-22T01:47:18.096Z,-8.80
2019-01-22T01:52:30.650Z,-8.60
2019-01-22T01:57:35.825Z,-8.30
2019-01-22T02:02:41.942Z,-8.00
2019-01-22T02:07:45.294Z,-7.60
2019-01-22T02:13:01.355Z,-7.30
2019-01-22T02:18:28.111Z,-6.90
2019-01-22T02:24:12.078Z,-6.50
2019-01-22T02:29:21.871Z,-6.20
2019-01-22T02:35:12.115Z,-5.80
2019-01-22T02:40:40.776Z,-5.50
2019-01-22T02:46:17.662Z,-5.20
2019-01-22T02:51:57.209Z,-4.90
2019-01-22T02:58:18.402Z,-4.70
2019-01-22T03:03:57.152Z,-4.50
2019-01-22T03:09:33.537Z,-4.20
2019-01-22T03:15:02.271Z,-4.10
2019-01-22T03:20:17.713Z,-3.90
2019-01-22T03:26:03.191Z,-3.80
2019-01-22T03:31:48.873Z,-3.70
2019-01-22T03:37:49.603Z,-3.40
2019-01-22T03:43:43.991Z,-3.30
2019-01-22T03:49:29.559Z,-3.20
2019-01-22T03:55:06.042Z,-3.10
2019-01-22T04:00:22.423Z,-2.90
2019-01-22T04:05:25.718Z,-2.80
2019-01-22T04:11:02.404Z,-2.70
2019-01-22T04:16:06.016Z,-2.60
2019-01-22T04:21:13.163Z,-2.50
2019-01-22T04:27:01.305Z,-2.40
2019-01-22T04:32:10.680Z,-2.40
2019-01-22T04:37:36.908Z,-2.30
2019-01-22T04:43:17.342Z,-2.20
2019-01-22T04:49:08.058Z,-2.20
2019-01-22T04:54:51.660Z,-2.40
2019-01-22T05:00:49.383Z,-2.40
2019-01-22T05:06:31.281Z,-2.40
2019-01-22T05:12:38.475Z,-2.50
2019-01-22T05:18:14.599Z,-2.40
2019-01-22T05:23:47.797Z,-2.20
2019-01-22T05:29:16.105Z,-2.10
2019-01-22T06:18:40.662Z,-1.70
2019-01-22T07:32:13.360Z,-0.90
2019-01-22T07:38:06.256Z,-0.90
2019-01-22T15:14:37.387Z,1.20
2019-01-22T15:19:42.359Z,1.30
2019-01-22T15:25:09.548Z,1.20
2019-01-22T15:30:22.635Z,1.30
2019-01-22T15:35:45.060Z,1.20
2019-01-22T15:40:48.822Z,1.20
2019-01-22T15:46:10.074Z,1.10
2019-01-22T15:51:15.059Z,1.20
2019-01-22T15:56:37.118Z,1.10
2019-01-22T16:01:41.795Z,1.10
2019-01-22T16:07:02.840Z,1.10
2019-01-22T16:12:06.601Z,1.10
2019-01-22T16:17:27.674Z,1.10
2019-01-22T16:22:30.435Z,1.20
2019-01-22T16:27:53.660Z,1.20
2019-01-22T16:33:14.614Z,1.20
2019-01-22T16:38:35.746Z,1.20
2019-01-22T16:43:56.840Z,1.10
2019-01-22T16:49:20.343Z,1.10
2019-01-22T16:54:41.095Z,1.10
2019-01-22T16:59:46.357Z,1.10
2019-01-22T17:05:08.636Z,1.10
2019-01-22T17:10:16.454Z,1.20
2019-01-22T17:15:19.659Z,1.30
2019-01-22T17:20:29.242Z,1.30
2019-01-22T17:25:36.574Z,1.30
2019-01-22T17:30:42.655Z,1.30
2019-01-22T17:35:57.042Z,1.30
2019-01-22T17:41:09.917Z,1.20
2019-01-22T17:46:13.491Z,1.30
2019-01-22T17:51:22.723Z,1.30
2019-01-22T17:56:31.057Z,1.30
2019-01-22T18:01:36.741Z,1.30
2019-01-22T18:06:43.324Z,1.30
2019-01-22T18:12:04.517Z,1.20
2019-01-22T18:17:26.491Z,1.30
2019-01-22T18:22:29.604Z,1.30
2019-01-22T18:27:33.630Z,1.30
2019-01-22T18:32:46.307Z,1.20
2019-01-22T18:37:49.153Z,1.20
2019-01-22T18:42:52.171Z,1.20
2019-01-22T18:47:58.069Z,1.10
2019-01-22T18:53:08.390Z,1.10
2019-01-22T18:58:37.507Z,1.10
2019-01-22T19:03:49.070Z,1.00
2019-01-22T19:09:11.677Z,1.00
2019-01-22T19:14:32.696Z,0.90
2019-01-22T19:19:53.892Z,0.90
2019-01-22T19:24:56.730Z,0.90
2019-01-22T19:29:59.930Z,0.80
2019-01-22T19:35:21.264Z,0.70
2019-01-22T19:40:33.822Z,0.70
2019-01-22T19:45:37.236Z,0.70
2019-01-22T19:50:49.210Z,0.70
2019-01-22T19:56:13.897Z,0.70
2019-01-22T20:01:18.270Z,0.70
2019-01-22T20:06:39.191Z,0.60
2019-01-22T20:11:52.119Z,0.60
2019-01-22T20:16:54.944Z,0.60
2019-01-22T20:22:16.480Z,0.60
2019-01-22T20:27:30.079Z,0.50
2019-01-22T20:32:36.505Z,0.50
2019-01-22T20:37:58.403Z,0.40
2019-01-22T20:43:20.127Z,0.40
2019-01-22T20:48:22.899Z,0.40
2019-01-22T20:53:25.682Z,0.40
2019-01-22T20:58:28.545Z,0.40
2019-01-22T21:03:34.304Z,0.50
2019-01-22T21:08:37.768Z,0.40
2019-01-22T21:13:40.671Z,0.40
2019-01-22T21:18:44.423Z,0.40
2019-01-22T21:24:05.630Z,0.20
2019-01-22T21:29:09.684Z,0.30
2019-01-22T21:34:16.243Z,0.40
2019-01-22T21:39:20.780Z,0.40
2019-01-22T21:44:34.779Z,0.30
2019-01-22T21:49:40.930Z,0.30
2019-01-22T21:54:44.419Z,0.30
2019-01-22T21:59:49.908Z,0.20
2019-01-22T22:05:11.155Z,0.20
2019-01-22T22:10:18.415Z,0.20
2019-01-22T22:15:23.048Z,0.20
2019-01-22T22:20:31.263Z,0.20
2019-01-22T22:25:38.410Z,0.20
2019-01-22T22:30:42.499Z,0.20
2019-01-22T22:36:03.551Z,0.20
2019-01-22T22:41:15.394Z,0.20
2019-01-22T22:46:18.596Z,0.20
2019-01-22T22:51:24.751Z,0.20
2019-01-22T22:56:27.739Z,0.30
2019-01-22T23:01:36.992Z,0.30
2019-01-22T23:06:41.397Z,0.30
2019-01-22T23:11:44.233Z,0.30
2019-01-22T23:16:48.163Z,0.20
2019-01-22T23:21:50.947Z,0.20
2019-01-22T23:27:11.621Z,0.10
2019-01-22T23:32:16.162Z,0.00
2019-01-22T23:37:21.302Z,-0.10
2019-01-22T23:42:24.433Z,-0.20
2019-01-22T23:47:28.183Z,-0.20
2019-01-22T23:52:31.095Z,-0.20
2019-01-22T23:57:41.067Z,-0.20
